Time;durP1;ratioP1;P1;durP2;ratioP2;P2;SDS_P1;SDS_P2;PMS_P1;PMS_P2;Temp;Humidity;BMP_temperature;BMP_pressure;BME280_temperature;BME280_humidity;BME280_pressure;Samples;Min_cycle;Max_cycle;Signal;HPM_P1;HPM_P2
2021/11/26 14:03:06;;;;;;;11.02;3.88;;;4.90;76.40;;;;;;5131666;27;20096;-39
2021/11/26 14:05:35;;;;;;;7.75;3.88;;;5.00;76.50;;;;;;5131503;28;20027;-39
2021/11/26 14:08:07;;;;;;;10.02;3.72;;;5.00;76.00;;;;;;5112664;28;20057;-39
2021/11/26 14:10:48;;;;;;;13.30;3.45;;;5.00;75.90;;;;;;5130934;28;20020;-38
2021/11/26 14:13:14;;;;;;;12.05;4.43;;;5.00;75.70;;;;;;5131433;28;20068;-38
2021/11/26 14:15:40;;;;;;;5.97;2.70;;;5.00;75.90;;;;;;5112585;28;20027;-38
2021/11/26 14:18:13;;;;;;;10.40;3.97;;;4.90;75.70;;;;;;5131284;28;20019;-39
2021/11/26 14:20:40;;;;;;;7.85;2.40;;;4.90;76.10;;;;;;5131629;27;20044;-38
2021/11/26 14:23:08;;;;;;;10.73;3.75;;;5.00;75.50;;;;;;5131793;27;20023;-37
2021/11/26 14:25:34;;;;;;;8.48;2.80;;;5.00;75.10;;;;;;5131007;27;20026;-38
2021/11/26 14:28:14;;;;;;;6.38;1.98;;;4.90;74.90;;;;;;5129906;28;20019;-38
2021/11/26 14:30:40;;;;;;;6.90;2.03;;;4.90;74.30;;;;;;5131097;27;20467;-38
2021/11/26 14:33:09;;;;;;;2.85;1.35;;;4.80;74.10;;;;;;5131113;27;20044;-38
2021/11/26 14:35:43;;;;;;;5.78;1.73;;;4.80;74.20;;;;;;5130810;27;20103;-38
2021/11/26 14:38:12;;;;;;;7.57;3.05;;;4.90;73.70;;;;;;5131974;27;20034;-39
2021/11/26 14:40:40;;;;;;;7.20;2.25;;;5.00;73.50;;;;;;5130323;27;20022;-39
2021/11/26 14:43:19;;;;;;;12.23;3.13;;;4.90;72.50;;;;;;5130424;27;20107;-39
2021/11/26 14:46:01;;;;;;;7.82;3.28;;;5.00;72.90;;;;;;5130217;27;20020;-40
2021/11/26 14:48:50;;;;;;;5.07;2.05;;;5.00;73.20;;;;;;5130948;27;20023;-39
2021/11/26 14:51:32;;;;;;;5.40;3.10;;;5.00;74.00;;;;;;5129951;27;20103;-40
2021/11/26 14:54:04;;;;;;;6.32;1.80;;;4.90;74.10;;;;;;5130318;27;20029;-39
2021/11/26 14:56:31;;;;;;;6.97;3.10;;;4.90;75.70;;;;;;5130944;27;20478;-38
2021/11/26 14:58:57;;;;;;;4.25;2.03;;;4.80;76.90;;;;;;5130107;27;20391;-39
2021/11/26 15:01:30;;;;;;;7.90;2.25;;;4.60;77.90;;;;;;5128578;28;20135;-39
2021/11/26 15:03:56;;;;;;;3.20;1.85;;;4.60;78.40;;;;;;5129988;27;20023;-38
2021/11/26 15:06:22;;;;;;;9.23;2.30;;;4.50;79.20;;;;;;5130309;27;20069;-53
2021/11/26 15:08:48;;;;;;;8.55;2.67;;;4.40;80.20;;;;;;5130401;27;20019;-49
2021/11/26 15:11:14;;;;;;;8.48;2.40;;;4.40;80.80;;;;;;5130317;27;20493;-52
2021/11/26 15:13:40;;;;;;;4.47;2.50;;;4.20;81.20;;;;;;5119604;28;20151;-51
2021/11/26 15:16:06;;;;;;;13.75;2.42;;;4.20;82.50;;;;;;5116519;28;20023;-50
2021/11/26 15:18:32;;;;;;;6.43;2.13;;;4.20;82.40;;;;;;5115820;28;20027;-48
2021/11/26 15:20:58;;;;;;;6.72;2.88;;;4.20;82.80;;;;;;5116143;28;20031;-49
2021/11/26 15:23:24;;;;;;;7.65;2.95;;;4.00;83.10;;;;;;5116467;28;20153;-50
2021/11/26 15:25:50;;;;;;;14.57;2.97;;;4.00;83.60;;;;;;5116206;28;20073;-49
2021/11/26 15:28:15;;;;;;;6.38;2.67;;;4.00;83.80;;;;;;5116063;28;20019;-52
2021/11/26 15:30:41;;;;;;;6.75;3.13;;;3.90;83.90;;;;;;5116180;28;20471;-49
2021/11/26 15:33:07;;;;;;;12.55;3.17;;;3.80;84.70;;;;;;5116029;28;20036;-51
2021/11/26 15:35:33;;;;;;;6.82;3.08;;;3.80;85.10;;;;;;5116125;28;20028;-49
2021/11/26 15:37:59;;;;;;;5.28;1.73;;;3.80;85.00;;;;;;5115790;28;20031;-50
2021/11/26 15:40:26;;;;;;;10.30;3.97;;;3.70;85.80;;;;;;5119234;28;20379;-53
2021/11/26 15:42:52;;;;;;;7.00;2.85;;;3.60;86.30;;;;;;5119496;28;20035;-54
2021/11/26 15:45:19;;;;;;;5.70;2.13;;;3.60;86.60;;;;;;5117404;28;20023;-50
2021/11/26 15:47:46;;;;;;;8.70;3.47;;;3.50;86.90;;;;;;5116377;28;20371;-52
2021/11/26 15:50:15;;;;;;;7.85;3.75;;;3.50;87.30;;;;;;5115825;27;20528;-51
2021/11/26 15:52:41;;;;;;;15.63;5.80;;;3.50;87.70;;;;;;5116134;28;20455;-52
2021/11/26 15:55:08;;;;;;;11.20;4.47;;;3.50;87.50;;;;;;5115689;28;20028;-51
2021/11/26 15:57:35;;;;;;;10.50;2.53;;;3.40;87.80;;;;;;5115306;28;20062;-51
2021/11/26 16:00:01;;;;;;;5.15;2.13;;;3.50;88.30;;;;;;5115735;28;20027;-49
2021/11/26 16:02:27;;;;;;;7.65;3.58;;;3.40;88.40;;;;;;5115198;28;20048;-50
2021/11/26 16:04:52;;;;;;;10.80;3.85;;;3.40;88.80;;;;;;5115274;28;20024;-52
2021/11/26 16:07:24;;;;;;;5.45;3.50;;;3.40;88.60;;;;;;5115357;28;20486;-49
2021/11/26 16:09:51;;;;;;;8.57;3.50;;;3.40;88.90;;;;;;5115049;28;20055;-52
2021/11/26 16:12:18;;;;;;;7.68;3.90;;;3.30;88.90;;;;;;5115170;28;20033;-49
2021/11/26 16:14:43;;;;;;;6.97;3.90;;;3.30;88.60;;;;;;5115007;28;20544;-48
2021/11/26 16:17:09;;;;;;;8.10;3.80;;;3.30;89.00;;;;;;5114132;28;20028;-52
2021/11/26 16:19:35;;;;;;;6.50;4.10;;;3.30;88.90;;;;;;5115315;28;20020;-48
2021/11/26 16:22:01;;;;;;;7.78;4.03;;;3.40;89.00;;;;;;5115785;28;20032;-48
2021/11/26 16:24:26;;;;;;;6.78;3.13;;;3.40;88.90;;;;;;5115292;28;20103;-49
2021/11/26 16:26:53;;;;;;;6.35;3.97;;;3.30;88.90;;;;;;5115349;28;20016;-49
2021/11/26 16:29:19;;;;;;;14.98;5.45;;;3.30;89.10;;;;;;5113443;28;20463;-50
2021/11/26 16:34:34;;;;;;;14.35;5.03;;;3.20;89.60;;;;;;5094614;28;20036;-51
2021/11/26 16:37:10;;;;;;;8.23;3.88;;;3.30;89.90;;;;;;5114496;28;20106;-48
2021/11/26 16:39:36;;;;;;;14.55;5.07;;;3.20;89.60;;;;;;5113615;28;20027;-54
2021/11/26 16:42:02;;;;;;;14.38;5.53;;;3.20;89.80;;;;;;5114070;28;20038;-51
2021/11/26 16:44:28;;;;;;;13.38;5.03;;;3.20;89.90;;;;;;5114123;28;20081;-50
2021/11/26 16:46:54;;;;;;;6.43;3.25;;;3.10;90.10;;;;;;5114412;28;20031;-49
2021/11/26 16:49:23;;;;;;;5.53;3.63;;;3.10;90.40;;;;;;5114597;28;20020;-49
2021/11/26 16:51:53;;;;;;;11.55;4.50;;;3.10;90.40;;;;;;5114544;28;20444;-52
2021/11/26 16:54:23;;;;;;;8.10;4.20;;;3.00;90.20;;;;;;5114258;28;20076;-53
2021/11/26 16:56:50;;;;;;;11.57;6.63;;;3.00;90.50;;;;;;5114655;28;20029;-52
2021/11/26 16:59:17;;;;;;;15.25;5.50;;;3.00;90.70;;;;;;5114023;28;20028;-49
2021/11/26 17:01:43;;;;;;;8.43;4.88;;;3.00;90.90;;;;;;5113684;28;20051;-52
2021/11/26 17:04:11;;;;;;;9.45;4.80;;;3.00;91.10;;;;;;5113182;28;20443;-50
2021/11/26 17:06:39;;;;;;;17.90;6.32;;;2.90;91.10;;;;;;5112563;28;20111;-51
2021/11/26 17:09:07;;;;;;;8.82;5.35;;;2.90;91.20;;;;;;5113774;28;20488;-49
2021/11/26 17:11:33;;;;;;;13.40;5.63;;;3.00;91.00;;;;;;5112540;28;20023;-50
2021/11/26 17:13:59;;;;;;;11.60;4.72;;;3.00;91.10;;;;;;5113337;28;20050;-49
2021/11/26 17:16:25;;;;;;;11.63;5.78;;;3.00;91.00;;;;;;5113793;28;20032;-49
2021/11/26 17:18:53;;;;;;;12.50;5.38;;;2.90;91.20;;;;;;5114115;28;20492;-51
2021/11/26 17:21:19;;;;;;;8.82;4.53;;;3.00;91.00;;;;;;5095726;28;20118;-51
2021/11/26 17:23:45;;;;;;;7.32;4.63;;;3.00;91.30;;;;;;5113569;28;20103;-50
2021/11/26 17:26:11;;;;;;;9.68;5.60;;;3.00;91.20;;;;;;5113861;28;20432;-49
2021/11/26 17:28:37;;;;;;;14.77;5.10;;;3.10;91.40;;;;;;5113483;28;20027;-50
2021/11/26 17:31:04;;;;;;;10.13;5.78;;;3.10;91.20;;;;;;5113717;28;20051;-54
2021/11/26 17:33:30;;;;;;;13.30;5.50;;;3.10;91.10;;;;;;5114244;28;20031;-50
2021/11/26 17:35:56;;;;;;;8.90;5.78;;;3.10;91.20;;;;;;5112022;28;20028;-51
2021/11/26 17:38:22;;;;;;;6.30;4.80;;;3.10;91.20;;;;;;5113389;28;20392;-51
2021/11/26 17:40:48;;;;;;;10.85;5.18;;;3.00;91.30;;;;;;5113581;28;20028;-50
2021/11/26 17:43:14;;;;;;;10.70;5.07;;;3.00;91.20;;;;;;5112710;28;20020;-51
2021/11/26 17:45:40;;;;;;;16.25;6.93;;;3.10;91.40;;;;;;5113278;28;20024;-51
2021/11/26 17:48:06;;;;;;;10.10;5.72;;;3.10;91.40;;;;;;5113276;28;20083;-53
2021/11/26 17:50:33;;;;;;;7.60;3.35;;;3.10;91.20;;;;;;5113749;28;20027;-55
2021/11/26 17:52:58;;;;;;;8.55;4.72;;;3.10;91.20;;;;;;5113604;28;20083;-52
2021/11/26 17:55:26;;;;;;;13.05;6.07;;;3.10;91.30;;;;;;5099231;28;20126;-50
2021/11/26 17:57:59;;;;;;;9.38;4.65;;;3.20;91.40;;;;;;5113560;28;20472;-49
2021/11/26 18:00:26;;;;;;;10.70;6.30;;;3.10;91.30;;;;;;5112130;28;20034;-50
2021/11/26 18:02:52;;;;;;;9.93;6.07;;;3.20;91.60;;;;;;5113135;28;20395;-50
2021/11/26 18:05:29;;;;;;;5.88;3.95;;;3.30;91.60;;;;;;5112196;28;20019;-51
2021/11/26 18:07:56;;;;;;;10.90;6.00;;;3.20;91.60;;;;;;5113273;28;20020;-53
2021/11/26 18:10:25;;;;;;;13.75;5.15;;;3.10;91.30;;;;;;5113507;28;20083;-50
2021/11/26 18:15:26;;;;;;;8.55;4.43;;;3.20;91.10;;;;;;5113405;28;20020;-52
2021/11/26 18:17:52;;;;;;;13.63;7.00;;;3.20;91.30;;;;;;5112866;28;20019;-49
2021/11/26 18:20:17;;;;;;;16.13;7.25;;;3.30;91.30;;;;;;5113145;28;20034;-49
2021/11/26 18:22:44;;;;;;;10.75;4.72;;;3.30;91.20;;;;;;5113255;28;20020;-51
2021/11/26 18:25:11;;;;;;;11.15;4.78;;;3.20;90.90;;;;;;5114174;28;20023;-50
2021/11/26 18:27:38;;;;;;;17.02;8.13;;;3.30;91.40;;;;;;5112114;28;20020;-52
2021/11/26 18:30:08;;;;;;;11.02;6.63;;;3.20;91.50;;;;;;5113543;28;20024;-49
2021/11/26 18:32:35;;;;;;;12.15;6.28;;;3.30;91.60;;;;;;5113315;28;20531;-50
2021/11/26 18:35:01;;;;;;;10.25;5.95;;;3.20;91.50;;;;;;5114313;28;20468;-49
2021/11/26 18:37:28;;;;;;;14.73;7.18;;;3.30;91.80;;;;;;5113249;28;20035;-51
2021/11/26 18:39:58;;;;;;;14.25;6.05;;;3.30;91.70;;;;;;5117112;28;20024;-50
2021/11/26 18:42:26;;;;;;;11.40;3.97;;;3.30;91.50;;;;;;5113605;28;20024;-50
2021/11/26 18:44:52;;;;;;;15.25;7.05;;;3.30;91.10;;;;;;5112772;28;20019;-55
2021/11/26 18:47:18;;;;;;;14.68;6.80;;;3.20;90.80;;;;;;5113186;28;20169;-50
2021/11/26 18:49:44;;;;;;;8.90;5.97;;;3.10;91.20;;;;;;5114866;28;20027;-52
2021/11/26 18:52:09;;;;;;;12.00;6.13;;;3.10;91.40;;;;;;5116754;28;20027;-50
2021/11/26 18:54:40;;;;;;;10.88;6.22;;;3.00;91.40;;;;;;5115325;28;20387;-51
2021/11/26 18:57:06;;;;;;;15.07;8.30;;;2.90;91.70;;;;;;5116519;28;20059;-48
2021/11/26 18:59:33;;;;;;;13.60;6.30;;;3.00;91.90;;;;;;5116651;28;20050;-48
2021/11/26 19:01:59;;;;;;;18.83;7.75;;;2.90;92.00;;;;;;5116043;28;20092;-49
2021/11/26 19:04:26;;;;;;;13.85;6.20;;;2.90;92.30;;;;;;5116214;28;20023;-52
2021/11/26 19:06:52;;;;;;;12.48;5.90;;;2.90;92.10;;;;;;5116616;28;20027;-52
2021/11/26 19:09:18;;;;;;;13.27;7.85;;;3.00;92.00;;;;;;5116614;28;20435;-50
2021/11/26 19:11:44;;;;;;;11.15;6.70;;;2.90;92.30;;;;;;5116856;28;20024;-49
2021/11/26 19:14:11;;;;;;;12.18;5.95;;;2.90;92.40;;;;;;5116259;28;20035;-50
2021/11/26 19:16:38;;;;;;;13.27;8.38;;;2.90;92.40;;;;;;5116117;28;20518;-51
2021/11/26 19:19:03;;;;;;;11.85;7.50;;;2.90;92.40;;;;;;5115712;28;20024;-48
2021/11/26 19:21:32;;;;;;;12.07;6.03;;;3.00;92.50;;;;;;5115648;28;20054;-48
2021/11/26 19:23:58;;;;;;;12.57;7.65;;;3.00;92.50;;;;;;5116141;28;20115;-52
2021/11/26 19:26:24;;;;;;;15.88;8.25;;;3.00;92.70;;;;;;5118395;28;20459;-49
2021/11/26 19:28:50;;;;;;;15.95;8.45;;;3.10;92.80;;;;;;5117755;28;20130;-50
2021/11/26 19:31:17;;;;;;;17.55;9.43;;;3.00;92.90;;;;;;5115904;28;20067;-52
2021/11/26 19:33:43;;;;;;;14.82;8.50;;;3.10;92.90;;;;;;5115792;28;20494;-51
2021/11/26 19:36:08;;;;;;;18.98;8.38;;;3.00;92.80;;;;;;5115772;28;20024;-54
2021/11/26 19:38:34;;;;;;;17.20;8.93;;;3.10;92.80;;;;;;5115554;28;20032;-51
2021/11/26 19:41:00;;;;;;;15.02;7.57;;;3.10;92.90;;;;;;5115642;28;20144;-50
2021/11/26 19:43:26;;;;;;;16.52;7.43;;;3.10;92.80;;;;;;5115602;28;20235;-54
2021/11/26 19:45:55;;;;;;;17.67;8.52;;;3.10;93.00;;;;;;5115730;28;20047;-50
2021/11/26 19:48:22;;;;;;;13.07;7.80;;;3.20;93.00;;;;;;5115417;28;20027;-51
2021/11/26 19:50:48;;;;;;;12.75;8.60;;;3.30;93.00;;;;;;5115623;28;20034;-51
2021/11/26 19:53:14;;;;;;;14.73;8.50;;;3.30;92.90;;;;;;5115503;28;20011;-49
2021/11/26 19:55:40;;;;;;;13.10;7.28;;;3.30;92.80;;;;;;5115662;28;20040;-50
2021/11/26 19:58:12;;;;;;;15.07;6.95;;;3.30;92.70;;;;;;5115635;28;20016;-51
2021/11/26 20:00:38;;;;;;;13.32;8.65;;;3.40;92.60;;;;;;5115423;27;20024;-48
2021/11/26 20:03:04;;;;;;;11.05;6.72;;;3.40;92.40;;;;;;5115380;28;20501;-51
2021/11/26 20:05:29;;;;;;;9.18;6.72;;;3.30;92.40;;;;;;5115217;28;20441;-50
2021/11/26 20:07:55;;;;;;;6.85;5.43;;;3.30;92.60;;;;;;5115410;28;20016;-53
2021/11/26 20:10:21;;;;;;;10.50;4.95;;;3.30;92.80;;;;;;5115372;28;20111;-50
2021/11/26 20:12:48;;;;;;;11.82;7.05;;;3.30;92.80;;;;;;5115812;28;20035;-51
2021/11/26 20:15:19;;;;;;;8.25;6.70;;;3.40;92.80;;;;;;5115297;28;20028;-52
2021/11/26 20:17:45;;;;;;;11.65;7.85;;;3.50;92.90;;;;;;5115777;28;20019;-54
2021/11/26 20:20:14;;;;;;;11.75;7.25;;;3.50;92.70;;;;;;5117091;28;20054;-53
2021/11/26 20:22:41;;;;;;;13.55;7.15;;;3.50;92.70;;;;;;5115301;28;20027;-54
2021/11/26 20:25:08;;;;;;;10.23;6.40;;;3.50;92.80;;;;;;5115283;28;20110;-53
2021/11/26 20:27:39;;;;;;;9.60;6.82;;;3.50;92.90;;;;;;5115157;28;20399;-50
2021/11/26 20:30:08;;;;;;;13.50;6.28;;;3.50;92.80;;;;;;5114715;28;20100;-52
2021/11/26 20:32:33;;;;;;;6.65;5.47;;;3.60;92.70;;;;;;5114276;28;20020;-51
2021/11/26 20:34:59;;;;;;;8.63;6.43;;;3.60;92.60;;;;;;5114683;27;20111;-50
2021/11/26 20:37:24;;;;;;;11.40;6.95;;;3.70;92.40;;;;;;5113141;28;20019;-51
2021/11/26 20:39:50;;;;;;;10.77;6.22;;;3.70;92.30;;;;;;5114437;28;20028;-51
2021/11/26 20:42:16;;;;;;;7.18;4.40;;;3.70;92.30;;;;;;5114390;28;20107;-51
2021/11/26 20:44:41;;;;;;;7.45;4.80;;;3.70;92.10;;;;;;5114614;28;20464;-54
2021/11/26 20:47:07;;;;;;;10.27;5.68;;;3.70;92.10;;;;;;5114494;28;20027;-51
2021/11/26 20:49:33;;;;;;;9.52;6.10;;;3.80;92.20;;;;;;5114753;28;20478;-52
2021/11/26 20:51:59;;;;;;;9.98;5.82;;;3.80;92.00;;;;;;5114272;28;20027;-52
2021/11/26 20:54:25;;;;;;;8.85;5.10;;;3.80;91.70;;;;;;5115309;28;20024;-50
2021/11/26 20:56:51;;;;;;;5.18;4.57;;;3.80;91.70;;;;;;5117755;28;20498;-53
2021/11/26 20:59:17;;;;;;;6.43;5.30;;;3.60;91.90;;;;;;5115626;28;20035;-51
2021/11/26 21:01:42;;;;;;;8.73;4.35;;;3.60;91.80;;;;;;5112226;28;20044;-51
2021/11/26 21:04:09;;;;;;;5.93;3.47;;;3.70;91.60;;;;;;5114229;28;20016;-57
2021/11/26 21:06:35;;;;;;;5.38;4.15;;;3.70;91.80;;;;;;5114324;28;20069;-54
2021/11/26 21:09:05;;;;;;;5.68;4.28;;;3.70;91.90;;;;;;5114516;28;20420;-53
2021/11/26 21:11:31;;;;;;;3.80;3.30;;;3.70;91.60;;;;;;5114022;28;20034;-54
2021/11/26 21:13:57;;;;;;;7.78;4.25;;;3.60;91.10;;;;;;5114042;28;20027;-51
2021/11/26 21:16:22;;;;;;;6.43;4.60;;;3.70;91.40;;;;;;5113757;28;20027;-52
2021/11/26 21:18:48;;;;;;;5.88;4.13;;;3.70;91.30;;;;;;5112453;28;20115;-52
2021/11/26 21:21:14;;;;;;;3.35;2.42;;;3.70;91.10;;;;;;5113869;28;20062;-51
2021/11/26 21:23:39;;;;;;;11.00;4.90;;;3.60;90.70;;;;;;5113976;28;20035;-52
2021/11/26 21:26:05;;;;;;;2.60;2.08;;;3.70;91.10;;;;;;5113811;28;20379;-51
2021/11/26 21:28:34;;;;;;;3.25;2.78;;;3.50;90.70;;;;;;5113860;28;20471;-50
2021/11/26 21:30:59;;;;;;;4.18;3.47;;;3.40;91.20;;;;;;5114157;28;20459;-51
2021/11/26 21:33:25;;;;;;;4.75;3.90;;;3.30;91.90;;;;;;5114149;28;20020;-49
2021/11/26 21:35:51;;;;;;;4.50;3.72;;;3.40;92.00;;;;;;5114243;28;20024;-50
2021/11/26 21:38:17;;;;;;;5.07;4.30;;;3.40;91.90;;;;;;5113930;28;20114;-51
2021/11/26 21:40:43;;;;;;;3.63;3.30;;;3.40;91.50;;;;;;5113986;28;20467;-51
2021/11/26 21:43:09;;;;;;;5.63;3.75;;;3.40;91.30;;;;;;5112022;28;20038;-49
2021/11/26 21:45:35;;;;;;;4.68;3.75;;;3.50;91.20;;;;;;5113952;28;20019;-49
2021/11/26 21:48:00;;;;;;;7.28;4.53;;;3.50;91.30;;;;;;5113833;28;20084;-53
2021/11/26 21:50:29;;;;;;;6.68;4.03;;;3.70;91.10;;;;;;5114450;28;20106;-50
2021/11/26 21:52:55;;;;;;;8.40;4.70;;;3.60;91.00;;;;;;5113626;28;20442;-53
2021/11/26 21:55:21;;;;;;;5.55;4.22;;;3.60;91.10;;;;;;5113527;28;20028;-53
2021/11/26 21:57:47;;;;;;;6.72;4.25;;;3.60;91.30;;;;;;5113421;28;20110;-55
2021/11/26 22:00:18;;;;;;;4.65;3.47;;;3.60;91.50;;;;;;5113693;28;20372;-53
2021/11/26 22:02:47;;;;;;;7.13;4.13;;;3.50;91.60;;;;;;5113134;28;20143;-53
2021/11/26 22:05:13;;;;;;;4.05;3.35;;;3.50;91.80;;;;;;5115450;28;20096;-53
2021/11/26 22:07:39;;;;;;;6.03;2.95;;;3.60;92.10;;;;;;5122863;28;20016;-50
2021/11/26 22:10:05;;;;;;;5.35;3.75;;;3.50;92.00;;;;;;5125998;28;20038;-51
2021/11/26 22:12:33;;;;;;;6.32;3.17;;;3.60;92.00;;;;;;5114189;28;20024;-54
2021/11/26 22:14:59;;;;;;;3.72;3.03;;;3.60;92.10;;;;;;5113690;28;20054;-50
2021/11/26 22:17:25;;;;;;;4.65;3.70;;;3.70;92.10;;;;;;5113980;28;20027;-53
2021/11/26 22:19:50;;;;;;;6.32;4.05;;;3.70;92.10;;;;;;5113693;28;20020;-53
2021/11/26 22:22:18;;;;;;;5.03;3.78;;;3.70;92.10;;;;;;5113830;28;20037;-54
2021/11/26 22:24:43;;;;;;;6.65;3.80;;;3.70;92.30;;;;;;5117543;28;20103;-54
2021/11/26 22:27:09;;;;;;;6.68;3.55;;;3.70;92.30;;;;;;5117732;28;20102;-53
2021/11/26 22:29:35;;;;;;;4.97;3.50;;;3.80;92.40;;;;;;5117430;28;20027;-51
2021/11/26 22:32:01;;;;;;;4.72;3.95;;;3.80;92.20;;;;;;5117200;28;20027;-54
2021/11/26 22:34:27;;;;;;;3.85;2.60;;;3.80;92.10;;;;;;5117229;28;20142;-50
2021/11/26 22:36:52;;;;;;;6.22;3.83;;;3.80;92.20;;;;;;5117320;28;20034;-50
2021/11/26 22:39:18;;;;;;;3.65;2.92;;;3.80;92.30;;;;;;5117160;28;20016;-54
2021/11/26 22:41:44;;;;;;;4.90;2.10;;;3.80;92.50;;;;;;5117134;28;20023;-53
2021/11/26 22:44:10;;;;;;;6.38;3.53;;;3.70;92.40;;;;;;5116843;28;20024;-50
2021/11/26 22:46:36;;;;;;;4.95;3.63;;;3.80;92.60;;;;;;5117048;28;20019;-49
2021/11/26 22:49:03;;;;;;;3.08;2.53;;;3.80;92.50;;;;;;5116902;28;20077;-52
2021/11/26 22:51:30;;;;;;;5.53;3.65;;;3.80;92.40;;;;;;5117419;28;20027;-52
2021/11/26 22:53:57;;;;;;;5.78;2.90;;;3.80;92.40;;;;;;5116750;28;20073;-51
2021/11/26 22:56:23;;;;;;;4.45;2.90;;;3.90;92.20;;;;;;5116608;28;20541;-50
2021/11/26 22:58:49;;;;;;;5.22;2.53;;;3.90;92.00;;;;;;5116766;28;20031;-50
